createdAt,value
2019-01-15T00:00:37.970Z,100877.96
2019-01-15T00:03:05.395Z,100881.34
2019-01-15T00:05:32.694Z,100883.95
2019-01-15T00:08:00.431Z,100876.34
2019-01-15T00:10:28.077Z,100878.31
2019-01-15T00:12:55.336Z,100876.45
2019-01-15T00:15:22.962Z,100875.99
2019-01-15T00:17:50.587Z,100871.25
2019-01-15T00:20:19.229Z,100881.02
2019-01-15T00:22:48.079Z,100882.56
2019-01-15T00:25:15.818Z,100884.98
2019-01-15T00:27:43.415Z,100894.45
2019-01-15T00:30:14.449Z,100903.30
2019-01-15T00:32:47.385Z,100902.46
2019-01-15T00:35:21.102Z,100909.94
2019-01-15T00:37:54.989Z,100901.52
2019-01-15T00:40:24.005Z,100907.83
2019-01-15T00:42:52.101Z,100914.08
2019-01-15T00:45:22.536Z,100914.23
2019-01-15T00:47:50.331Z,100915.27
2019-01-15T00:50:18.201Z,100922.42
2019-01-15T00:52:45.601Z,100920.41
2019-01-15T00:55:18.453Z,100915.34
2019-01-15T00:57:46.513Z,100928.03
2019-01-15T01:00:18.045Z,100923.38
2019-01-15T01:02:45.979Z,100930.80
2019-01-15T01:05:20.853Z,100928.03
2019-01-15T01:07:52.143Z,100928.22
2019-01-15T01:10:20.864Z,100930.70
2019-01-15T01:12:55.175Z,100928.98
2019-01-15T01:15:23.154Z,100943.85
2019-01-15T01:17:50.547Z,100938.95
2019-01-15T01:20:21.199Z,100945.83
2019-01-15T01:22:50.070Z,100954.88
2019-01-15T01:25:19.686Z,100953.41
2019-01-15T01:27:50.751Z,100942.99
2019-01-15T01:30:21.206Z,100953.43
2019-01-15T01:32:49.467Z,100958.12
2019-01-15T01:35:17.400Z,100959.45
2019-01-15T01:37:45.540Z,100956.55
2019-01-15T01:40:16.553Z,100952.49
2019-01-15T01:42:44.602Z,100959.20
2019-01-15T01:45:13.789Z,100956.49
2019-01-15T01:47:41.371Z,100955.71
2019-01-15T01:50:11.038Z,100961.28
2019-01-15T01:52:39.301Z,100959.71
2019-01-15T01:55:11.432Z,100955.71
2019-01-15T01:57:40.271Z,100956.74
2019-01-15T02:00:13.150Z,100963.26
2019-01-15T02:02:40.473Z,100968.27
2019-01-15T02:05:08.458Z,100970.97
2019-01-15T02:07:35.957Z,100970.97
2019-01-15T02:10:05.859Z,100973.41
2019-01-15T02:12:36.971Z,100970.45
2019-01-15T02:15:05.278Z,100975.71
2019-01-15T02:17:32.944Z,100968.43
2019-01-15T02:20:02.197Z,100981.28
2019-01-15T02:22:29.971Z,100968.64
2019-01-15T02:24:57.213Z,100964.67
2019-01-15T02:27:24.944Z,100972.08
2019-01-15T02:29:53.133Z,100976.95
2019-01-15T02:32:21.299Z,100970.52
2019-01-15T02:34:48.898Z,100974.19
2019-01-15T02:37:16.234Z,100968.34
2019-01-15T02:39:43.875Z,100971.72
2019-01-15T02:42:11.662Z,100977.38
2019-01-15T02:44:39.738Z,100973.45
2019-01-15T02:47:07.844Z,100979.55
2019-01-15T02:49:35.545Z,100981.58
2019-01-15T02:52:03.025Z,100984.28
2019-01-15T02:54:30.396Z,100986.27
2019-01-15T02:56:57.795Z,100989.42
2019-01-15T02:59:25.600Z,100992.80
2019-01-15T03:01:53.179Z,100991.12
2019-01-15T03:04:20.764Z,100997.69
2019-01-15T03:06:48.473Z,100997.58
2019-01-15T03:09:15.637Z,100990.14
2019-01-15T03:11:43.628Z,100994.02
2019-01-15T03:14:11.145Z,100994.20
2019-01-15T03:16:38.526Z,100991.89
2019-01-15T03:19:06.160Z,100990.53
2019-01-15T03:21:33.297Z,100990.11
2019-01-15T03:24:00.691Z,100987.27
2019-01-15T03:26:28.409Z,100986.13
2019-01-15T03:28:56.070Z,100983.48
2019-01-15T03:31:23.898Z,100982.59
2019-01-15T03:33:52.811Z,100980.84
2019-01-15T03:36:20.542Z,100979.70
2019-01-15T03:38:48.341Z,100963.33
2019-01-15T03:41:15.734Z,100956.91
2019-01-15T03:43:42.956Z,100963.65
2019-01-15T03:46:10.710Z,100968.38
2019-01-15T03:48:38.667Z,100963.33
2019-01-15T03:51:07.023Z,100965.39
2019-01-15T03:53:34.743Z,100970.36
2019-01-15T03:56:02.514Z,100969.52
2019-01-15T03:58:30.537Z,100958.89
2019-01-15T04:00:57.898Z,100949.98
2019-01-15T04:03:25.672Z,100929.45
2019-01-15T04:05:53.761Z,100931.52
2019-01-15T04:08:21.371Z,100946.59
2019-01-15T04:10:48.925Z,100950.64
2019-01-15T04:13:16.451Z,100949.84
2019-01-15T04:15:43.976Z,100942.92
2019-01-15T04:18:14.766Z,100943.77
2019-01-15T04:20:42.646Z,100948.84
2019-01-15T04:23:10.314Z,100939.73
2019-01-15T04:25:37.684Z,100936.30
2019-01-15T04:28:05.590Z,100934.09
2019-01-15T04:30:33.134Z,100938.25
2019-01-15T04:33:01.394Z,100944.95
2019-01-15T04:35:28.762Z,100943.58
2019-01-15T04:37:56.170Z,100938.91
2019-01-15T04:40:23.966Z,100941.41
2019-01-15T04:42:52.227Z,100938.37
2019-01-15T04:45:23.821Z,100940.25
2019-01-15T04:47:51.251Z,100934.08
2019-01-15T04:50:18.667Z,100936.08
2019-01-15T04:52:51.201Z,100941.47
2019-01-15T04:55:18.706Z,100939.98
2019-01-15T04:57:46.382Z,100930.00
2019-01-15T05:00:18.059Z,100934.57
2019-01-15T05:02:46.125Z,100936.27
2019-01-15T05:05:13.872Z,100930.72
2019-01-15T05:07:41.793Z,100938.11
2019-01-15T05:10:11.478Z,100931.42
2019-01-15T05:12:38.943Z,100929.05
2019-01-15T05:15:09.211Z,100938.13
2019-01-15T05:17:36.791Z,100930.06
2019-01-15T05:20:06.838Z,100935.09
2019-01-15T05:22:34.422Z,100936.77
2019-01-15T05:25:03.341Z,100938.25
2019-01-15T05:27:31.360Z,100937.80
2019-01-15T05:29:58.671Z,100934.40
2019-01-15T05:32:26.050Z,100924.98
2019-01-15T05:34:53.477Z,100933.38
2019-01-15T05:37:20.833Z,100933.73
2019-01-15T05:39:48.785Z,100929.57
2019-01-15T05:42:16.025Z,100938.37
2019-01-15T05:44:43.722Z,100931.74
2019-01-15T05:47:12.365Z,100937.86
2019-01-15T05:49:40.073Z,100932.72
2019-01-15T05:52:07.954Z,100936.27
2019-01-15T05:54:35.704Z,100941.33
2019-01-15T05:57:03.848Z,100946.38
2019-01-15T05:59:31.792Z,100937.80
2019-01-15T06:01:59.664Z,100928.33
2019-01-15T06:04:27.119Z,100924.30
2019-01-15T06:06:54.711Z,100923.98
2019-01-15T06:09:23.806Z,100924.98
2019-01-15T06:11:51.486Z,100932.39
2019-01-15T06:14:19.334Z,100932.77
2019-01-15T06:16:46.807Z,100928.22
2019-01-15T06:19:14.498Z,100924.30
2019-01-15T06:21:42.248Z,100920.30
2019-01-15T06:24:09.538Z,100918.63
2019-01-15T06:26:36.936Z,100917.08
2019-01-15T06:29:04.796Z,100921.14
2019-01-15T06:31:32.275Z,100920.44
2019-01-15T06:34:00.584Z,100916.55
2019-01-15T06:36:28.249Z,100921.09
2019-01-15T06:38:56.062Z,100925.50
2019-01-15T06:41:23.534Z,100924.86
2019-01-15T06:43:50.918Z,100919.41
2019-01-15T06:46:18.439Z,100921.89
2019-01-15T06:48:46.209Z,100916.55
2019-01-15T06:51:13.851Z,100914.19
2019-01-15T06:53:41.194Z,100920.63
2019-01-15T06:56:10.283Z,100921.78
2019-01-15T06:58:38.135Z,100919.91
2019-01-15T07:01:05.650Z,100915.53
2019-01-15T07:03:33.322Z,100931.51
2019-01-15T07:06:01.015Z,100931.48
2019-01-15T07:08:28.588Z,100930.45
2019-01-15T07:10:55.982Z,100930.77
2019-01-15T07:13:23.653Z,100940.55
2019-01-15T07:15:53.227Z,100937.23
2019-01-15T07:18:21.152Z,100932.27
2019-01-15T07:20:48.397Z,100932.95
2019-01-15T07:23:16.480Z,100935.33
2019-01-15T07:25:43.854Z,100930.20
2019-01-15T07:28:11.412Z,100931.87
2019-01-15T07:30:51.790Z,100936.90
2019-01-15T07:33:23.437Z,100939.27
2019-01-15T07:35:50.805Z,100953.05
2019-01-15T07:38:18.431Z,100956.31
2019-01-15T07:40:46.131Z,100956.97
2019-01-15T07:43:13.416Z,100957.81
2019-01-15T07:45:40.915Z,100954.27
2019-01-15T07:48:08.264Z,100951.55
2019-01-15T07:50:35.752Z,100947.82
2019-01-15T07:53:04.557Z,100946.28
2019-01-15T07:55:31.812Z,100948.48
2019-01-15T07:57:59.600Z,100955.86
2019-01-15T08:00:27.621Z,100962.57
2019-01-15T08:02:55.775Z,100965.98
2019-01-15T08:05:23.842Z,100967.64
2019-01-15T08:07:51.665Z,100968.69
2019-01-15T08:10:19.524Z,100970.27
2019-01-15T08:12:47.653Z,100970.58
2019-01-15T08:15:20.969Z,100965.87
2019-01-15T08:17:48.676Z,100959.25
2019-01-15T08:20:16.387Z,100967.17
2019-01-15T08:22:44.409Z,100956.98
2019-01-15T08:25:12.551Z,100939.72
2019-01-15T08:27:40.527Z,100944.72
2019-01-15T08:30:23.856Z,100936.58
2019-01-15T08:32:51.527Z,100937.94
2019-01-15T08:35:19.593Z,100949.51
2019-01-15T08:37:47.385Z,100946.27
2019-01-15T08:40:14.979Z,100930.48
2019-01-15T08:42:45.378Z,100933.19
2019-01-15T08:45:14.569Z,100934.64
2019-01-15T08:47:45.450Z,100943.19
2019-01-15T08:50:15.640Z,100940.55
2019-01-15T08:52:42.985Z,100939.38
2019-01-15T08:55:10.320Z,100942.44
2019-01-15T08:57:37.799Z,100951.86
2019-01-15T09:00:07.267Z,100944.67
2019-01-15T09:02:34.839Z,100943.02
2019-01-15T09:05:03.266Z,100936.48
2019-01-15T09:07:31.038Z,100936.89
2019-01-15T09:09:59.217Z,100939.75
2019-01-15T09:12:27.046Z,100929.17
2019-01-15T09:14:56.712Z,100934.83
2019-01-15T09:17:24.670Z,100937.22
2019-01-15T09:19:51.893Z,100950.53
2019-01-15T09:22:19.070Z,100943.13
2019-01-15T09:24:46.519Z,100938.74
2019-01-15T09:27:13.865Z,100937.83
2019-01-15T09:29:41.370Z,100940.78
2019-01-15T09:32:09.450Z,100938.75
2019-01-15T09:34:36.960Z,100925.35
2019-01-15T09:37:06.490Z,100923.25
2019-01-15T09:39:34.520Z,100920.73
2019-01-15T09:42:01.756Z,100917.39
2019-01-15T09:44:34.092Z,100912.88
2019-01-15T09:46:58.985Z,100925.82
2019-01-15T09:49:26.609Z,100922.06
2019-01-15T09:51:53.851Z,100925.13
2019-01-15T09:54:21.487Z,100928.22
2019-01-15T09:56:48.752Z,100924.87
2019-01-15T09:59:16.534Z,100924.94
2019-01-15T10:01:43.948Z,100933.97
2019-01-15T10:04:11.310Z,100937.47
2019-01-15T10:06:38.697Z,100923.81
2019-01-15T10:09:08.495Z,100929.56
2019-01-15T10:11:36.301Z,100935.56
2019-01-15T10:14:04.330Z,100935.19
2019-01-15T10:16:31.826Z,100930.34
2019-01-15T10:18:59.690Z,100925.75
2019-01-15T10:21:27.449Z,100907.91
2019-01-15T10:23:55.347Z,100913.91
2019-01-15T10:26:22.537Z,100913.42
2019-01-15T10:28:50.518Z,100903.78
2019-01-15T10:32:27.511Z,100901.75
2019-01-15T10:34:55.998Z,100901.17
2019-01-15T10:37:23.920Z,100896.84
2019-01-15T10:39:51.465Z,100893.61
2019-01-15T10:42:18.618Z,100900.08
2019-01-15T10:44:48.807Z,100894.02
2019-01-15T10:47:15.446Z,100891.05
2019-01-15T10:49:42.764Z,100890.84
2019-01-15T10:52:10.322Z,100890.77
2019-01-15T10:54:37.694Z,100882.98
2019-01-15T10:57:07.426Z,100882.98
2019-01-15T10:59:35.131Z,100882.50
2019-01-15T11:02:03.318Z,100871.95
2019-01-15T11:04:31.191Z,100867.83
2019-01-15T11:06:59.332Z,100870.58
2019-01-15T11:09:27.107Z,100870.00
2019-01-15T11:11:55.071Z,100856.64
2019-01-15T11:14:23.022Z,100863.16
2019-01-15T11:16:51.114Z,100860.06
2019-01-15T11:19:18.987Z,100859.85
2019-01-15T11:21:46.855Z,100861.36
2019-01-15T11:24:14.389Z,100862.06
2019-01-15T11:26:41.880Z,100855.92
2019-01-15T11:29:10.357Z,100846.72
2019-01-15T11:31:38.590Z,100839.09
2019-01-15T11:34:08.499Z,100833.13
2019-01-15T11:36:36.097Z,100836.69
2019-01-15T11:39:08.566Z,100830.09
2019-01-15T11:41:36.784Z,100822.23
2019-01-15T11:44:04.730Z,100822.11
2019-01-15T11:46:32.699Z,100809.46
2019-01-15T11:49:00.477Z,100813.84
2019-01-15T11:51:28.305Z,100813.52
2019-01-15T11:53:56.087Z,100798.89
2019-01-15T11:56:27.196Z,100805.47
2019-01-15T11:59:00.014Z,100800.16
2019-01-15T12:01:34.695Z,100792.92
2019-01-15T12:04:27.728Z,100789.67
2019-01-15T12:07:18.451Z,100792.61
2019-01-15T12:10:11.763Z,100798.78
2019-01-15T12:12:49.457Z,100786.72
2019-01-15T12:15:35.351Z,100791.64
2019-01-15T12:18:25.098Z,100799.93
2019-01-15T12:21:10.816Z,100796.89
2019-01-15T12:24:09.791Z,100787.25
2019-01-15T12:26:55.344Z,100790.27
2019-01-15T12:29:45.353Z,100784.44
2019-01-15T12:32:37.737Z,100780.20
2019-01-15T12:35:24.990Z,100772.92
2019-01-15T12:38:12.523Z,100777.02
2019-01-15T12:41:05.592Z,100776.67
2019-01-15T12:44:07.808Z,100783.61
2019-01-15T12:46:53.096Z,100786.85
2019-01-15T12:49:46.543Z,100779.61
2019-01-15T12:52:33.751Z,100777.22
2019-01-15T12:55:20.774Z,100770.31
2019-01-15T12:58:11.125Z,100770.39
2019-01-15T13:01:02.172Z,100764.31
2019-01-15T13:03:49.035Z,100762.03
2019-01-15T13:06:39.333Z,100752.60
2019-01-15T13:09:20.299Z,100750.11
2019-01-15T13:12:06.459Z,100749.33
2019-01-15T13:14:56.524Z,100745.88
2019-01-15T13:17:50.839Z,100739.72
2019-01-15T13:20:31.537Z,100737.17
2019-01-15T13:23:30.971Z,100735.86
2019-01-15T13:26:09.534Z,100732.81
2019-01-15T13:28:58.786Z,100736.08
2019-01-15T13:31:56.946Z,100735.22
2019-01-15T13:34:43.452Z,100731.59
2019-01-15T13:37:29.421Z,100721.53
2019-01-15T13:40:22.540Z,100724.98
2019-01-15T13:43:09.170Z,100722.91
2019-01-15T13:46:00.730Z,100728.32
2019-01-15T13:48:45.107Z,100723.80
2019-01-15T13:51:24.764Z,100719.97
2019-01-15T13:54:10.651Z,100727.20
2019-01-15T13:56:48.453Z,100729.01
2019-01-15T13:59:35.127Z,100731.15
2019-01-15T14:02:15.011Z,100728.86
2019-01-15T14:05:05.600Z,100730.02
2019-01-15T14:07:58.368Z,100733.05
2019-01-15T14:10:50.514Z,100727.82
2019-01-15T14:13:33.573Z,100722.92
2019-01-15T14:16:19.443Z,100721.00
2019-01-15T14:19:01.093Z,100723.23
2019-01-15T14:21:47.281Z,100718.09
2019-01-15T14:24:43.443Z,100714.98
2019-01-15T14:27:40.798Z,100718.41
2019-01-15T14:30:31.585Z,100714.98
2019-01-15T14:33:18.730Z,100711.81
2019-01-15T14:36:06.585Z,100706.91
2019-01-15T14:39:12.319Z,100713.89
2019-01-15T14:41:58.050Z,100702.91
2019-01-15T14:44:44.220Z,100711.83
2019-01-15T14:47:37.171Z,100709.09
2019-01-15T14:50:19.077Z,100708.18
2019-01-15T14:53:15.153Z,100709.84
2019-01-15T14:56:03.964Z,100704.93
2019-01-15T14:58:57.190Z,100714.64
2019-01-15T15:01:42.734Z,100707.13
2019-01-15T15:04:29.647Z,100713.28
2019-01-15T15:07:12.699Z,100713.61
2019-01-15T15:10:00.596Z,100716.14
2019-01-15T15:12:39.239Z,100713.94
2019-01-15T15:15:27.362Z,100717.81
2019-01-15T15:18:14.354Z,100718.72
2019-01-15T15:20:53.974Z,100716.66
2019-01-15T15:23:46.806Z,100711.44
2019-01-15T15:26:30.953Z,100711.63
2019-01-15T15:29:11.898Z,100716.36
2019-01-15T15:31:57.707Z,100716.14
2019-01-15T15:34:50.962Z,100715.30
2019-01-15T15:37:43.764Z,100714.78
2019-01-15T15:40:23.585Z,100711.02
2019-01-15T15:43:22.678Z,100714.25
2019-01-15T15:46:16.408Z,100706.62
2019-01-15T15:48:54.755Z,100709.13
2019-01-15T15:51:54.152Z,100713.33
2019-01-15T15:54:45.218Z,100714.17
2019-01-15T15:57:37.070Z,100713.33
2019-01-15T16:00:36.440Z,100715.92
2019-01-15T16:03:14.971Z,100710.16
2019-01-15T16:06:05.127Z,100707.44
2019-01-15T16:08:51.130Z,100709.11
2019-01-15T16:11:37.149Z,100700.41
2019-01-15T16:14:33.908Z,100701.98
2019-01-15T16:17:20.686Z,100705.63
2019-01-15T16:20:10.327Z,100711.67
2019-01-15T16:22:59.069Z,100712.72
2019-01-15T16:25:49.132Z,100714.08
2019-01-15T16:28:34.765Z,100707.28
2019-01-15T16:31:34.681Z,100717.80
2019-01-15T16:34:25.787Z,100717.82
2019-01-15T16:37:25.118Z,100713.61
2019-01-15T16:40:07.643Z,100715.95
2019-01-15T16:42:53.890Z,100713.03
2019-01-15T16:45:51.563Z,100705.92
2019-01-15T16:48:39.703Z,100702.78
2019-01-15T16:51:25.751Z,100711.66
2019-01-15T16:54:12.722Z,100712.39
2019-01-15T16:56:52.442Z,100718.15
2019-01-15T16:59:40.988Z,100713.66
2019-01-15T17:02:28.047Z,100707.70
2019-01-15T17:05:10.603Z,100710.03
2019-01-15T17:07:48.924Z,100699.23
2019-01-15T17:10:36.229Z,100705.42
2019-01-15T17:13:21.999Z,100704.27
2019-01-15T17:16:20.630Z,100704.83
2019-01-15T17:19:16.742Z,100695.71
2019-01-15T17:22:04.622Z,100696.56
2019-01-15T17:24:45.775Z,100702.50
2019-01-15T17:27:31.840Z,100701.91
2019-01-15T17:30:20.633Z,100697.08
2019-01-15T17:33:02.636Z,100700.23
2019-01-15T17:35:49.225Z,100698.53
2019-01-15T17:38:52.136Z,100699.69
2019-01-15T17:41:47.952Z,100702.00
2019-01-15T17:44:35.155Z,100695.41
2019-01-15T17:47:14.414Z,100698.36
2019-01-15T17:49:56.267Z,100695.48
2019-01-15T17:52:43.764Z,100694.35
2019-01-15T17:55:30.062Z,100693.30
2019-01-15T17:58:28.931Z,100695.94
2019-01-15T18:01:18.714Z,100696.58
2019-01-15T18:04:04.715Z,100695.95
2019-01-15T18:06:58.132Z,100698.87
2019-01-15T18:09:41.492Z,100695.41
2019-01-15T18:12:23.201Z,100709.61
2019-01-15T18:15:09.295Z,100707.94
2019-01-15T18:17:56.194Z,100705.67
2019-01-15T18:20:35.821Z,100715.05
2019-01-15T18:23:21.994Z,100701.23
2019-01-15T18:26:08.515Z,100707.03
2019-01-15T18:28:54.691Z,100703.67
2019-01-15T18:31:48.447Z,100702.84
2019-01-15T18:34:33.853Z,100705.88
2019-01-15T18:37:21.244Z,100697.63
2019-01-15T18:40:07.321Z,100701.09
2019-01-15T18:42:52.655Z,100704.31
2019-01-15T18:45:33.461Z,100700.31
2019-01-15T18:48:19.642Z,100698.75
2019-01-15T18:51:16.602Z,100697.37
2019-01-15T18:54:00.628Z,100696.25
2019-01-15T18:56:42.051Z,100698.97
2019-01-15T18:59:35.331Z,100694.89
2019-01-15T19:02:22.437Z,100706.20
2019-01-15T19:05:12.549Z,100710.88
2019-01-15T19:07:59.601Z,100702.73
2019-01-15T19:10:49.329Z,100708.25
2019-01-15T19:13:48.791Z,100711.19
2019-01-15T19:16:33.914Z,100714.64
2019-01-15T19:19:21.050Z,100700.72
2019-01-15T19:22:06.936Z,100698.97
2019-01-15T19:24:52.541Z,100696.25
2019-01-15T19:27:38.675Z,100705.86
2019-01-15T19:30:41.523Z,100700.95
2019-01-15T19:33:22.918Z,100707.86
2019-01-15T19:36:13.114Z,100708.67
2019-01-15T19:38:51.640Z,100701.75
2019-01-15T19:41:48.945Z,100702.49
2019-01-15T19:44:35.006Z,100699.45
2019-01-15T19:47:29.610Z,100701.84
2019-01-15T19:50:15.614Z,100705.39
2019-01-15T19:53:08.230Z,100709.03
2019-01-15T19:56:07.267Z,100713.77
2019-01-15T19:59:03.509Z,100708.22
2019-01-15T20:02:05.949Z,100704.56
2019-01-15T20:04:54.738Z,100712.72
2019-01-15T20:07:57.131Z,100712.50
2019-01-15T20:10:51.147Z,100705.19
2019-01-15T20:13:38.541Z,100708.52
2019-01-15T20:16:27.519Z,100711.89
2019-01-15T20:19:15.078Z,100710.73
2019-01-15T20:22:00.839Z,100709.02
2019-01-15T20:24:55.093Z,100709.85
2019-01-15T20:27:38.856Z,100713.41
2019-01-15T20:30:28.652Z,100716.33
2019-01-15T20:33:14.964Z,100716.23
2019-01-15T20:35:56.755Z,100714.77
2019-01-15T20:38:44.037Z,100711.02
2019-01-15T20:41:21.281Z,100712.78
2019-01-15T20:44:08.440Z,100714.92
2019-01-15T20:46:55.536Z,100708.34
2019-01-15T20:49:45.608Z,100706.16
2019-01-15T20:52:32.996Z,100707.49
2019-01-15T20:55:23.460Z,100710.41
2019-01-15T20:58:10.718Z,100709.30
2019-01-15T21:01:09.854Z,100704.52
2019-01-15T21:03:52.606Z,100702.50
2019-01-15T21:06:39.525Z,100709.60
2019-01-15T21:09:30.126Z,100704.70
2019-01-15T21:12:31.497Z,100705.92
2019-01-15T21:15:16.885Z,100700.12
2019-01-15T21:18:03.230Z,100702.03
2019-01-15T21:21:08.878Z,100695.34
2019-01-15T21:23:54.535Z,100700.67
2019-01-15T21:26:38.703Z,100696.80
2019-01-15T21:29:24.837Z,100697.44
2019-01-15T21:32:11.368Z,100694.06
2019-01-15T21:34:51.454Z,100695.55
2019-01-15T21:37:31.466Z,100688.56
2019-01-15T21:40:13.069Z,100690.45
2019-01-15T21:43:00.676Z,100688.66
2019-01-15T21:45:56.691Z,100688.34
2019-01-15T21:48:47.216Z,100701.10
2019-01-15T21:51:41.320Z,100692.36
2019-01-15T21:54:28.642Z,100689.41
2019-01-15T21:57:13.238Z,100692.97
2019-01-15T21:59:50.555Z,100690.87
2019-01-15T22:02:27.809Z,100699.45
2019-01-15T22:05:17.560Z,100695.98
2019-01-15T22:08:03.222Z,100686.90
2019-01-15T22:11:05.082Z,100678.00
2019-01-15T22:14:09.442Z,100685.08
2019-01-15T22:17:10.940Z,100683.44
2019-01-15T22:20:01.701Z,100692.83
2019-01-15T22:22:56.603Z,100684.91
2019-01-15T22:25:45.020Z,100684.39
2019-01-15T22:28:41.573Z,100684.78
2019-01-15T22:31:34.463Z,100684.45
2019-01-15T22:34:20.102Z,100680.09
2019-01-15T22:37:06.830Z,100675.06
2019-01-15T22:39:52.937Z,100675.39
2019-01-15T22:42:28.268Z,100674.73
2019-01-15T22:45:14.439Z,100677.18
2019-01-15T22:48:01.729Z,100674.67
2019-01-15T22:50:53.517Z,100664.61
2019-01-15T22:53:39.885Z,100667.42
2019-01-15T22:56:33.193Z,100668.80
2019-01-15T22:59:26.734Z,100670.67
2019-01-15T23:02:17.300Z,100667.23
2019-01-15T23:05:04.324Z,100660.31
2019-01-15T23:07:50.110Z,100656.16
2019-01-15T23:10:43.145Z,100647.37
2019-01-15T23:13:29.217Z,100650.73
2019-01-15T23:16:21.827Z,100652.98
2019-01-15T23:19:20.735Z,100645.96
2019-01-15T23:22:05.588Z,100646.77
2019-01-15T23:24:48.589Z,100652.09
2019-01-15T23:27:38.710Z,100644.16
2019-01-15T23:30:27.490Z,100634.42
2019-01-15T23:33:10.636Z,100643.52
2019-01-15T23:35:55.742Z,100643.83
2019-01-15T23:38:41.071Z,100649.12
2019-01-15T23:41:29.650Z,100637.75
2019-01-15T23:44:12.341Z,100637.85
2019-01-15T23:46:59.234Z,100638.06
2019-01-15T23:49:37.500Z,100635.42
2019-01-15T23:52:19.023Z,100628.13
2019-01-15T23:55:21.614Z,100629.38
2019-01-15T23:58:01.786Z,100629.27
